Airfield :
LOGIN :

Register | Disclaimer

   EN    FR    IT 

 










Legend :    VFR   Marginal VFR   IFR   Intensive IFR   Very Intensive IFR
Visi :
Ceiling :
>= 8 km
>= 3000ft
5 to 8 km
1000 to 3000 ft
1500m to 5 km
500 to 1000 ft
800 to 1500m
200 to 500 ft
< 800m
< 200 ft
Symbols :   Thunderstorms  Fog  Heavy snow  Heavy precipitations  Wind > 20 kt
SIGMETs :     Misc.  Thunderstorms  Icing  Turbulence  Mountain Waves  Volcanic Ashes






- Airport Elevation : 272 ft


EGWC - DCAE Cosford

CURRENT METAR :
  • 041150Z 27010KT 9999 BKN034 17/08 Q1021 RMK BLU

EXPIRED METARs :
  • 041050Z 25009KT 9999 FEW026 BKN030 16/09 Q1021 RMK BLU
  • 040950Z 29009KT 9999 BKN028 16/08 Q1021 RMK BLU

TAF TAF EGWC
Valid from the 04 at 12:00 until the 04 at 21:00 UTC


041033Z 0412/0421 26010KT 9999 BKN035



MET'MAP, your aeronautical weather chart ! - Copyright ORBIFLY December 2007 - Disclaimer

ORBIFLY MET'MAP TEAM :

Programming & Development : Alexandra Zaïnal
Original concept : Baudouin d'Aumeries
Technical & hardware support : Manuel Goepfert
Assistance : Marc-Olivier Méhu




SOURCES & CREDITS :

   NOAA